sensor_id;sensor_type;location;lat;lon;timestamp;temperature;humidity
1367;DHT22;16877;48.810;9.282;2023-04-01T00:00:07;18.40;50.80
1367;DHT22;16877;48.810;9.282;2023-04-01T00:02:35;18.40;50.80
1367;DHT22;16877;48.810;9.282;2023-04-01T00:05:02;18.40;50.80
1367;DHT22;16877;48.810;9.282;2023-04-01T00:07:31;18.40;50.90
1367;DHT22;16877;48.810;9.282;2023-04-01T00:10:00;18.40;51.00
1367;DHT22;16877;48.810;9.282;2023-04-01T00:12:28;18.40;51.00
1367;DHT22;16877;48.810;9.282;2023-04-01T00:14:55;18.30;51.00
1367;DHT22;16877;48.810;9.282;2023-04-01T00:17:23;18.40;51.10
1367;DHT22;16877;48.810;9.282;2023-04-01T00:19:50;18.30;51.10
1367;DHT22;16877;48.810;9.282;2023-04-01T00:22:18;18.30;51.20
1367;DHT22;16877;48.810;9.282;2023-04-01T00:24:45;18.30;51.30
1367;DHT22;16877;48.810;9.282;2023-04-01T00:27:14;18.30;51.30
1367;DHT22;16877;48.810;9.282;2023-04-01T00:29:42;18.40;51.30
1367;DHT22;16877;48.810;9.282;2023-04-01T00:32:09;18.30;51.30
1367;DHT22;16877;48.810;9.282;2023-04-01T00:34:37;18.40;51.40
1367;DHT22;16877;48.810;9.282;2023-04-01T00:37:05;18.40;51.40
1367;DHT22;16877;48.810;9.282;2023-04-01T00:39:33;18.30;51.40
1367;DHT22;16877;48.810;9.282;2023-04-01T00:42:02;18.40;51.40
1367;DHT22;16877;48.810;9.282;2023-04-01T00:44:33;18.40;51.40
1367;DHT22;16877;48.810;9.282;2023-04-01T00:47:01;18.40;51.40
1367;DHT22;16877;48.810;9.282;2023-04-01T00:49:31;18.30;51.40
1367;DHT22;16877;48.810;9.282;2023-04-01T00:52:01;18.30;51.40
1367;DHT22;16877;48.810;9.282;2023-04-01T00:54:30;18.30;51.40
1367;DHT22;16877;48.810;9.282;2023-04-01T00:56:59;18.30;51.40
1367;DHT22;16877;48.810;9.282;2023-04-01T00:59:31;18.30;51.40
1367;DHT22;16877;48.810;9.282;2023-04-01T01:02:01;18.30;51.50
1367;DHT22;16877;48.810;9.282;2023-04-01T01:04:29;18.30;51.60
1367;DHT22;16877;48.810;9.282;2023-04-01T01:07:07;18.30;51.60
1367;DHT22;16877;48.810;9.282;2023-04-01T01:09:45;18.40;51.50
1367;DHT22;16877;48.810;9.282;2023-04-01T01:12:16;18.40;51.50
1367;DHT22;16877;48.810;9.282;2023-04-01T01:14:55;18.30;51.40
1367;DHT22;16877;48.810;9.282;2023-04-01T01:17:32;18.20;51.60
1367;DHT22;16877;48.810;9.282;2023-04-01T01:20:24;18.30;51.80
1367;DHT22;16877;48.810;9.282;2023-04-01T01:23:12;18.20;51.90
1367;DHT22;16877;48.810;9.282;2023-04-01T01:25:55;18.20;52.00
1367;DHT22;16877;48.810;9.282;2023-04-01T01:28:37;18.20;51.90
1367;DHT22;16877;48.810;9.282;2023-04-01T01:31:18;18.20;51.80
1367;DHT22;16877;48.810;9.282;2023-04-01T01:34:06;18.20;51.80
1367;DHT22;16877;48.810;9.282;2023-04-01T01:36:42;18.20;51.80
1367;DHT22;16877;48.810;9.282;2023-04-01T01:39:12;18.20;51.70
1367;DHT22;16877;48.810;9.282;2023-04-01T01:41:42;18.30;51.90
1367;DHT22;16877;48.810;9.282;2023-04-01T01:44:12;18.30;51.70
1367;DHT22;16877;48.810;9.282;2023-04-01T01:46:41;18.30;51.80
1367;DHT22;16877;48.810;9.282;2023-04-01T01:49:11;18.30;51.90
1367;DHT22;16877;48.810;9.282;2023-04-01T01:51:42;18.30;52.00
1367;DHT22;16877;48.810;9.282;2023-04-01T01:54:12;18.20;52.10
1367;DHT22;16877;48.810;9.282;2023-04-01T01:56:41;18.20;52.40
1367;DHT22;16877;48.810;9.282;2023-04-01T01:59:11;18.20;52.50
1367;DHT22;16877;48.810;9.282;2023-04-01T02:01:42;18.20;52.50
1367;DHT22;16877;48.810;9.282;2023-04-01T02:04:11;18.20;52.70
1367;DHT22;16877;48.810;9.282;2023-04-01T02:06:44;18.20;52.80
1367;DHT22;16877;48.810;9.282;2023-04-01T02:09:14;18.20;52.90
1367;DHT22;16877;48.810;9.282;2023-04-01T02:11:44;18.20;52.90
1367;DHT22;16877;48.810;9.282;2023-04-01T02:14:15;18.20;53.00
1367;DHT22;16877;48.810;9.282;2023-04-01T02:16:45;18.20;52.90
1367;DHT22;16877;48.810;9.282;2023-04-01T02:19:17;18.20;52.90
1367;DHT22;16877;48.810;9.282;2023-04-01T02:21:52;18.20;52.90
1367;DHT22;16877;48.810;9.282;2023-04-01T02:24:20;18.20;52.80
1367;DHT22;16877;48.810;9.282;2023-04-01T02:26:50;18.20;52.80
1367;DHT22;16877;48.810;9.282;2023-04-01T02:29:20;18.20;52.80
1367;DHT22;16877;48.810;9.282;2023-04-01T02:31:49;18.20;52.70
1367;DHT22;16877;48.810;9.282;2023-04-01T02:34:16;18.20;52.70
1367;DHT22;16877;48.810;9.282;2023-04-01T02:36:44;18.20;52.70
1367;DHT22;16877;48.810;9.282;2023-04-01T02:39:14;18.20;52.90
1367;DHT22;16877;48.810;9.282;2023-04-01T02:41:42;18.10;52.90
1367;DHT22;16877;48.810;9.282;2023-04-01T02:44:11;18.10;52.90
1367;DHT22;16877;48.810;9.282;2023-04-01T02:46:39;18.10;52.90
1367;DHT22;16877;48.810;9.282;2023-04-01T02:49:07;18.10;52.80
1367;DHT22;16877;48.810;9.282;2023-04-01T02:51:34;18.00;52.80
1367;DHT22;16877;48.810;9.282;2023-04-01T02:54:05;18.00;52.80
1367;DHT22;16877;48.810;9.282;2023-04-01T02:56:34;18.00;52.70
1367;DHT22;16877;48.810;9.282;2023-04-01T02:59:02;18.00;52.60
1367;DHT22;16877;48.810;9.282;2023-04-01T03:01:29;17.90;52.50
1367;DHT22;16877;48.810;9.282;2023-04-01T03:03:57;17.90;52.60
1367;DHT22;16877;48.810;9.282;2023-04-01T03:06:24;17.80;52.50
1367;DHT22;16877;48.810;9.282;2023-04-01T03:08:51;17.80;52.50
1367;DHT22;16877;48.810;9.282;2023-04-01T03:11:19;17.80;52.40
1367;DHT22;16877;48.810;9.282;2023-04-01T03:13:48;17.80;52.40
1367;DHT22;16877;48.810;9.282;2023-04-01T03:16:16;17.70;52.30
1367;DHT22;16877;48.810;9.282;2023-04-01T03:18:43;17.70;52.30
1367;DHT22;16877;48.810;9.282;2023-04-01T03:21:15;17.70;52.30
1367;DHT22;16877;48.810;9.282;2023-04-01T03:23:43;17.70;52.20
1367;DHT22;16877;48.810;9.282;2023-04-01T03:26:11;17.70;52.10
1367;DHT22;16877;48.810;9.282;2023-04-01T03:28:39;17.70;52.10
1367;DHT22;16877;48.810;9.282;2023-04-01T03:31:08;17.70;51.90
1367;DHT22;16877;48.810;9.282;2023-04-01T03:33:36;17.80;52.50
1367;DHT22;16877;48.810;9.282;2023-04-01T03:36:04;17.70;51.80
1367;DHT22;16877;48.810;9.282;2023-04-01T03:38:32;17.70;51.70
1367;DHT22;16877;48.810;9.282;2023-04-01T03:40:59;17.70;51.70
1367;DHT22;16877;48.810;9.282;2023-04-01T03:43:27;17.70;51.80
1367;DHT22;16877;48.810;9.282;2023-04-01T03:45:55;17.60;51.70
1367;DHT22;16877;48.810;9.282;2023-04-01T03:48:25;17.60;51.70
1367;DHT22;16877;48.810;9.282;2023-04-01T03:50:52;17.70;51.70
1367;DHT22;16877;48.810;9.282;2023-04-01T03:53:20;17.70;51.60
1367;DHT22;16877;48.810;9.282;2023-04-01T03:55:47;17.80;51.60
1367;DHT22;16877;48.810;9.282;2023-04-01T03:58:17;17.70;51.40
1367;DHT22;16877;48.810;9.282;2023-04-01T04:00:45;17.60;51.30
1367;DHT22;16877;48.810;9.282;2023-04-01T04:03:13;17.60;51.40
1367;DHT22;16877;48.810;9.282;2023-04-01T04:05:48;17.60;51.50
1367;DHT22;16877;48.810;9.282;2023-04-01T04:08:19;17.70;51.40
1367;DHT22;16877;48.810;9.282;2023-04-01T04:10:47;17.70;51.30
1367;DHT22;16877;48.810;9.282;2023-04-01T04:13:15;17.70;51.20
1367;DHT22;16877;48.810;9.282;2023-04-01T04:15:42;17.70;51.10
1367;DHT22;16877;48.810;9.282;2023-04-01T04:18:10;17.70;51.00
1367;DHT22;16877;48.810;9.282;2023-04-01T04:20:43;17.70;51.00
1367;DHT22;16877;48.810;9.282;2023-04-01T04:23:12;17.60;51.00
1367;DHT22;16877;48.810;9.282;2023-04-01T04:25:40;17.60;51.00
1367;DHT22;16877;48.810;9.282;2023-04-01T04:28:07;17.70;50.90
1367;DHT22;16877;48.810;9.282;2023-04-01T04:30:35;17.60;50.80
1367;DHT22;16877;48.810;9.282;2023-04-01T04:33:03;17.60;50.80
1367;DHT22;16877;48.810;9.282;2023-04-01T04:35:30;17.50;50.80
1367;DHT22;16877;48.810;9.282;2023-04-01T04:37:58;17.50;50.80
1367;DHT22;16877;48.810;9.282;2023-04-01T04:40:26;17.60;50.80
1367;DHT22;16877;48.810;9.282;2023-04-01T04:42:54;17.50;50.70
1367;DHT22;16877;48.810;9.282;2023-04-01T04:45:22;17.50;50.80
1367;DHT22;16877;48.810;9.282;2023-04-01T04:47:49;17.40;50.80
1367;DHT22;16877;48.810;9.282;2023-04-01T04:50:17;17.40;50.90
1367;DHT22;16877;48.810;9.282;2023-04-01T04:52:48;17.40;50.90
1367;DHT22;16877;48.810;9.282;2023-04-01T04:55:16;17.40;50.90
1367;DHT22;16877;48.810;9.282;2023-04-01T04:57:45;17.30;51.00
1367;DHT22;16877;48.810;9.282;2023-04-01T05:00:13;17.30;51.00
1367;DHT22;16877;48.810;9.282;2023-04-01T05:02:40;17.30;51.00
1367;DHT22;16877;48.810;9.282;2023-04-01T05:05:08;17.30;51.10
1367;DHT22;16877;48.810;9.282;2023-04-01T05:07:36;17.30;51.20
1367;DHT22;16877;48.810;9.282;2023-04-01T05:10:07;17.30;51.20
1367;DHT22;16877;48.810;9.282;2023-04-01T05:12:34;17.30;51.20
1367;DHT22;16877;48.810;9.282;2023-04-01T05:15:07;17.30;51.30
1367;DHT22;16877;48.810;9.282;2023-04-01T05:17:42;17.30;51.40
1367;DHT22;16877;48.810;9.282;2023-04-01T05:20:13;17.30;51.40
1367;DHT22;16877;48.810;9.282;2023-04-01T05:22:56;17.30;51.60
1367;DHT22;16877;48.810;9.282;2023-04-01T05:25:33;17.30;51.50
1367;DHT22;16877;48.810;9.282;2023-04-01T05:28:08;17.30;51.50
1367;DHT22;16877;48.810;9.282;2023-04-01T05:30:39;17.40;51.50
1367;DHT22;16877;48.810;9.282;2023-04-01T05:33:09;17.40;51.40
1367;DHT22;16877;48.810;9.282;2023-04-01T05:35:40;17.40;51.40
1367;DHT22;16877;48.810;9.282;2023-04-01T05:38:08;17.50;51.50
1367;DHT22;16877;48.810;9.282;2023-04-01T05:40:35;17.40;51.50
1367;DHT22;16877;48.810;9.282;2023-04-01T05:43:03;17.50;51.60
1367;DHT22;16877;48.810;9.282;2023-04-01T05:45:34;17.50;51.60
1367;DHT22;16877;48.810;9.282;2023-04-01T05:48:03;17.50;51.50
1367;DHT22;16877;48.810;9.282;2023-04-01T05:50:30;17.60;51.60
1367;DHT22;16877;48.810;9.282;2023-04-01T05:53:02;17.60;51.50
1367;DHT22;16877;48.810;9.282;2023-04-01T05:55:30;17.60;51.50
1367;DHT22;16877;48.810;9.282;2023-04-01T05:57:57;17.70;51.40
1367;DHT22;16877;48.810;9.282;2023-04-01T06:00:26;17.80;51.30
1367;DHT22;16877;48.810;9.282;2023-04-01T06:02:54;17.80;51.20
1367;DHT22;16877;48.810;9.282;2023-04-01T06:05:24;17.80;51.10
1367;DHT22;16877;48.810;9.282;2023-04-01T06:07:55;17.90;51.20
1367;DHT22;16877;48.810;9.282;2023-04-01T06:10:33;17.80;51.00
1367;DHT22;16877;48.810;9.282;2023-04-01T06:13:06;17.90;51.00
1367;DHT22;16877;48.810;9.282;2023-04-01T06:15:40;17.90;50.80
1367;DHT22;16877;48.810;9.282;2023-04-01T06:27:12;18.10;50.60
1367;DHT22;16877;48.810;9.282;2023-04-01T06:29:50;18.20;50.50
1367;DHT22;16877;48.810;9.282;2023-04-01T06:32:28;18.20;50.30
1367;DHT22;16877;48.810;9.282;2023-04-01T06:35:17;18.30;50.20
1367;DHT22;16877;48.810;9.282;2023-04-01T06:38:01;18.30;50.20
1367;DHT22;16877;48.810;9.282;2023-04-01T06:40:57;18.40;50.10
1367;DHT22;16877;48.810;9.282;2023-04-01T06:43:37;18.40;49.90
1367;DHT22;16877;48.810;9.282;2023-04-01T06:46:13;18.40;49.70
1367;DHT22;16877;48.810;9.282;2023-04-01T06:48:53;18.40;49.70
1367;DHT22;16877;48.810;9.282;2023-04-01T06:51:30;18.50;49.70
1367;DHT22;16877;48.810;9.282;2023-04-01T06:54:05;18.50;49.50
1367;DHT22;16877;48.810;9.282;2023-04-01T06:56:37;18.50;49.50
1367;DHT22;16877;48.810;9.282;2023-04-01T06:59:10;18.50;49.50
1367;DHT22;16877;48.810;9.282;2023-04-01T07:01:41;18.50;49.40
1367;DHT22;16877;48.810;9.282;2023-04-01T07:04:13;18.60;51.10
1367;DHT22;16877;48.810;9.282;2023-04-01T07:06:45;18.40;49.90
1367;DHT22;16877;48.810;9.282;2023-04-01T07:09:19;18.60;51.40
1367;DHT22;16877;48.810;9.282;2023-04-01T07:11:47;18.80;55.10
1367;DHT22;16877;48.810;9.282;2023-04-01T07:14:20;19.10;53.90
1367;DHT22;16877;48.810;9.282;2023-04-01T07:16:51;19.20;51.20
1367;DHT22;16877;48.810;9.282;2023-04-01T07:19:25;19.20;50.20
1367;DHT22;16877;48.810;9.282;2023-04-01T07:21:56;19.10;49.70
1367;DHT22;16877;48.810;9.282;2023-04-01T07:24:27;19.10;51.20
1367;DHT22;16877;48.810;9.282;2023-04-01T07:26:57;19.10;49.90
1367;DHT22;16877;48.810;9.282;2023-04-01T07:29:25;19.10;49.60
1367;DHT22;16877;48.810;9.282;2023-04-01T07:32:12;19.00;49.40
1367;DHT22;16877;48.810;9.282;2023-04-01T07:34:50;19.00;49.30
1367;DHT22;16877;48.810;9.282;2023-04-01T07:37:24;19.00;49.40
1367;DHT22;16877;48.810;9.282;2023-04-01T07:40:32;19.00;49.30
1367;DHT22;16877;48.810;9.282;2023-04-01T07:43:24;19.00;49.20
1367;DHT22;16877;48.810;9.282;2023-04-01T07:46:03;19.00;49.20
1367;DHT22;16877;48.810;9.282;2023-04-01T07:48:42;19.00;49.20
1367;DHT22;16877;48.810;9.282;2023-04-01T07:51:17;18.90;49.10
1367;DHT22;16877;48.810;9.282;2023-04-01T07:53:51;18.90;49.30
1367;DHT22;16877;48.810;9.282;2023-04-01T07:56:31;18.90;49.30
1367;DHT22;16877;48.810;9.282;2023-04-01T07:59:11;18.90;49.30
1367;DHT22;16877;48.810;9.282;2023-04-01T08:01:49;19.00;49.40
1367;DHT22;16877;48.810;9.282;2023-04-01T08:04:38;18.90;49.30
1367;DHT22;16877;48.810;9.282;2023-04-01T08:07:30;18.90;49.20
1367;DHT22;16877;48.810;9.282;2023-04-01T08:10:07;19.00;49.40
1367;DHT22;16877;48.810;9.282;2023-04-01T08:12:55;19.00;49.40
1367;DHT22;16877;48.810;9.282;2023-04-01T08:15:28;19.00;49.40
1367;DHT22;16877;48.810;9.282;2023-04-01T08:18:09;19.10;49.30
1367;DHT22;16877;48.810;9.282;2023-04-01T08:20:41;19.10;49.30
1367;DHT22;16877;48.810;9.282;2023-04-01T08:23:14;19.10;49.30
1367;DHT22;16877;48.810;9.282;2023-04-01T08:25:52;19.10;49.30
1367;DHT22;16877;48.810;9.282;2023-04-01T08:28:27;19.20;49.40
1367;DHT22;16877;48.810;9.282;2023-04-01T08:31:01;19.20;49.40
1367;DHT22;16877;48.810;9.282;2023-04-01T08:33:36;19.20;49.40
1367;DHT22;16877;48.810;9.282;2023-04-01T08:36:08;19.20;49.40
1367;DHT22;16877;48.810;9.282;2023-04-01T08:38:40;19.20;49.40
1367;DHT22;16877;48.810;9.282;2023-04-01T08:44:56;19.10;49.10
1367;DHT22;16877;48.810;9.282;2023-04-01T08:47:46;19.10;49.40
1367;DHT22;16877;48.810;9.282;2023-04-01T08:50:36;19.10;49.90
1367;DHT22;16877;48.810;9.282;2023-04-01T08:53:11;19.00;50.00
1367;DHT22;16877;48.810;9.282;2023-04-01T08:55:51;19.00;50.30
1367;DHT22;16877;48.810;9.282;2023-04-01T09:02:18;18.90;50.90
1367;DHT22;16877;48.810;9.282;2023-04-01T09:05:17;18.90;51.20
1367;DHT22;16877;48.810;9.282;2023-04-01T09:07:58;18.80;51.30
1367;DHT22;16877;48.810;9.282;2023-04-01T09:10:40;18.80;51.50
1367;DHT22;16877;48.810;9.282;2023-04-01T09:13:27;18.80;51.70
1367;DHT22;16877;48.810;9.282;2023-04-01T09:16:18;18.80;51.70
1367;DHT22;16877;48.810;9.282;2023-04-01T09:19:16;18.80;51.70
1367;DHT22;16877;48.810;9.282;2023-04-01T09:25:29;18.80;51.70
1367;DHT22;16877;48.810;9.282;2023-04-01T09:28:02;18.80;51.50
1367;DHT22;16877;48.810;9.282;2023-04-01T09:30:58;18.80;51.50
1367;DHT22;16877;48.810;9.282;2023-04-01T09:37:20;18.80;51.90
1367;DHT22;16877;48.810;9.282;2023-04-01T09:40:09;18.90;51.20
1367;DHT22;16877;48.810;9.282;2023-04-01T09:42:44;19.00;51.10
1367;DHT22;16877;48.810;9.282;2023-04-01T09:45:28;19.00;50.90
1367;DHT22;16877;48.810;9.282;2023-04-01T09:48:14;19.00;50.60
1367;DHT22;16877;48.810;9.282;2023-04-01T09:50:52;19.00;50.40
1367;DHT22;16877;48.810;9.282;2023-04-01T09:53:52;18.90;50.50
1367;DHT22;16877;48.810;9.282;2023-04-01T10:00:08;18.90;50.70
1367;DHT22;16877;48.810;9.282;2023-04-01T10:09:28;18.90;50.50
1367;DHT22;16877;48.810;9.282;2023-04-01T10:12:35;19.00;50.50
1367;DHT22;16877;48.810;9.282;2023-04-01T10:15:51;19.00;50.30
1367;DHT22;16877;48.810;9.282;2023-04-01T10:22:29;18.90;49.70
1367;DHT22;16877;48.810;9.282;2023-04-01T10:29:23;18.90;49.30
1367;DHT22;16877;48.810;9.282;2023-04-01T10:32:42;19.00;49.40
1367;DHT22;16877;48.810;9.282;2023-04-01T10:39:31;19.00;49.20
1367;DHT22;16877;48.810;9.282;2023-04-01T10:49:26;19.10;49.40
1367;DHT22;16877;48.810;9.282;2023-04-01T10:52:29;19.10;49.50
1367;DHT22;16877;48.810;9.282;2023-04-01T10:55:44;19.10;49.40
1367;DHT22;16877;48.810;9.282;2023-04-01T10:58:53;19.20;49.40
1367;DHT22;16877;48.810;9.282;2023-04-01T11:14:45;19.00;49.40
1367;DHT22;16877;48.810;9.282;2023-04-01T11:17:42;19.10;49.50
1367;DHT22;16877;48.810;9.282;2023-04-01T11:23:44;19.10;48.90
1367;DHT22;16877;48.810;9.282;2023-04-01T11:26:25;19.10;48.90
1367;DHT22;16877;48.810;9.282;2023-04-01T11:29:29;19.20;49.10
1367;DHT22;16877;48.810;9.282;2023-04-01T11:32:20;19.20;48.70
1367;DHT22;16877;48.810;9.282;2023-04-01T11:35:25;19.30;48.40
1367;DHT22;16877;48.810;9.282;2023-04-01T11:38:07;19.40;48.40
1367;DHT22;16877;48.810;9.282;2023-04-01T11:40:46;19.50;48.30
1367;DHT22;16877;48.810;9.282;2023-04-01T11:43:32;19.50;48.30
1367;DHT22;16877;48.810;9.282;2023-04-01T11:46:05;19.60;48.30
1367;DHT22;16877;48.810;9.282;2023-04-01T11:48:58;19.60;48.00
1367;DHT22;16877;48.810;9.282;2023-04-01T11:51:53;19.60;48.00
1367;DHT22;16877;48.810;9.282;2023-04-01T11:54:35;19.60;47.90
1367;DHT22;16877;48.810;9.282;2023-04-01T11:58:05;19.70;48.00
1367;DHT22;16877;48.810;9.282;2023-04-01T12:01:02;19.70;47.70
1367;DHT22;16877;48.810;9.282;2023-04-01T12:03:50;19.70;47.70
1367;DHT22;16877;48.810;9.282;2023-04-01T12:06:41;19.70;47.70
1367;DHT22;16877;48.810;9.282;2023-04-01T12:09:18;19.60;47.80
1367;DHT22;16877;48.810;9.282;2023-04-01T12:11:56;19.60;48.00
1367;DHT22;16877;48.810;9.282;2023-04-01T12:14:35;19.60;48.20
1367;DHT22;16877;48.810;9.282;2023-04-01T12:17:21;19.70;48.20
1367;DHT22;16877;48.810;9.282;2023-04-01T12:20:00;19.60;48.20
1367;DHT22;16877;48.810;9.282;2023-04-01T12:22:46;19.70;48.20
1367;DHT22;16877;48.810;9.282;2023-04-01T12:25:25;19.50;48.20
1367;DHT22;16877;48.810;9.282;2023-04-01T12:28:03;19.50;48.60
1367;DHT22;16877;48.810;9.282;2023-04-01T12:30:50;19.60;48.80
1367;DHT22;16877;48.810;9.282;2023-04-01T12:33:56;19.50;49.70
1367;DHT22;16877;48.810;9.282;2023-04-01T12:36:44;19.40;49.50
1367;DHT22;16877;48.810;9.282;2023-04-01T12:39:47;19.40;50.00
1367;DHT22;16877;48.810;9.282;2023-04-01T12:42:36;19.40;50.00
1367;DHT22;16877;48.810;9.282;2023-04-01T12:45:28;19.50;50.10
1367;DHT22;16877;48.810;9.282;2023-04-01T12:48:27;19.60;50.10
1367;DHT22;16877;48.810;9.282;2023-04-01T12:51:25;19.60;50.00
1367;DHT22;16877;48.810;9.282;2023-04-01T12:57:07;19.60;49.40
1367;DHT22;16877;48.810;9.282;2023-04-01T12:59:55;19.70;49.30
1367;DHT22;16877;48.810;9.282;2023-04-01T13:02:35;19.70;48.90
1367;DHT22;16877;48.810;9.282;2023-04-01T13:05:32;19.70;48.70
1367;DHT22;16877;48.810;9.282;2023-04-01T13:08:17;19.70;48.40
1367;DHT22;16877;48.810;9.282;2023-04-01T13:11:02;19.70;48.20
1367;DHT22;16877;48.810;9.282;2023-04-01T13:13:55;19.70;47.90
1367;DHT22;16877;48.810;9.282;2023-04-01T13:16:29;19.70;48.10
1367;DHT22;16877;48.810;9.282;2023-04-01T13:19:01;19.70;48.00
1367;DHT22;16877;48.810;9.282;2023-04-01T13:21:38;19.70;48.00
1367;DHT22;16877;48.810;9.282;2023-04-01T13:24:17;19.70;47.80
1367;DHT22;16877;48.810;9.282;2023-04-01T13:26:55;19.70;47.70
1367;DHT22;16877;48.810;9.282;2023-04-01T13:29:27;19.60;47.80
1367;DHT22;16877;48.810;9.282;2023-04-01T13:32:10;19.70;48.00
1367;DHT22;16877;48.810;9.282;2023-04-01T13:34:59;19.70;47.90
1367;DHT22;16877;48.810;9.282;2023-04-01T13:37:42;19.70;47.80
1367;DHT22;16877;48.810;9.282;2023-04-01T13:40:32;19.70;47.70
1367;DHT22;16877;48.810;9.282;2023-04-01T13:43:07;19.70;47.70
1367;DHT22;16877;48.810;9.282;2023-04-01T13:45:47;19.70;47.70
1367;DHT22;16877;48.810;9.282;2023-04-01T13:48:41;19.70;47.60
1367;DHT22;16877;48.810;9.282;2023-04-01T13:51:35;19.70;47.60
1367;DHT22;16877;48.810;9.282;2023-04-01T13:57:35;19.70;47.40
1367;DHT22;16877;48.810;9.282;2023-04-01T14:00:19;19.60;47.50
1367;DHT22;16877;48.810;9.282;2023-04-01T14:03:03;19.60;47.50
1367;DHT22;16877;48.810;9.282;2023-04-01T14:06:02;19.60;47.60
1367;DHT22;16877;48.810;9.282;2023-04-01T14:08:56;19.70;47.50
1367;DHT22;16877;48.810;9.282;2023-04-01T14:11:34;19.70;47.60
1367;DHT22;16877;48.810;9.282;2023-04-01T14:14:17;19.70;47.60
1367;DHT22;16877;48.810;9.282;2023-04-01T14:17:13;19.60;47.90
1367;DHT22;16877;48.810;9.282;2023-04-01T14:26:50;19.60;47.60
1367;DHT22;16877;48.810;9.282;2023-04-01T14:29:40;19.60;47.60
1367;DHT22;16877;48.810;9.282;2023-04-01T14:32:28;19.60;47.60
1367;DHT22;16877;48.810;9.282;2023-04-01T14:35:17;19.60;47.50
1367;DHT22;16877;48.810;9.282;2023-04-01T14:38:04;19.50;47.60
1367;DHT22;16877;48.810;9.282;2023-04-01T14:40:45;19.50;47.80
1367;DHT22;16877;48.810;9.282;2023-04-01T14:43:36;19.40;48.20
1367;DHT22;16877;48.810;9.282;2023-04-01T14:46:17;19.30;48.60
1367;DHT22;16877;48.810;9.282;2023-04-01T14:48:56;19.30;49.00
1367;DHT22;16877;48.810;9.282;2023-04-01T14:51:29;19.40;49.20
1367;DHT22;16877;48.810;9.282;2023-04-01T14:54:05;19.40;49.10
1367;DHT22;16877;48.810;9.282;2023-04-01T14:56:38;19.40;49.00
1367;DHT22;16877;48.810;9.282;2023-04-01T14:59:09;19.30;49.00
1367;DHT22;16877;48.810;9.282;2023-04-01T15:01:43;19.40;49.00
1367;DHT22;16877;48.810;9.282;2023-04-01T15:07:26;19.30;48.90
1367;DHT22;16877;48.810;9.282;2023-04-01T15:09:59;19.30;48.60
1367;DHT22;16877;48.810;9.282;2023-04-01T15:12:36;19.30;48.70
1367;DHT22;16877;48.810;9.282;2023-04-01T15:15:17;19.30;48.70
1367;DHT22;16877;48.810;9.282;2023-04-01T15:17:55;19.30;48.80
1367;DHT22;16877;48.810;9.282;2023-04-01T15:20:38;19.30;48.70
1367;DHT22;16877;48.810;9.282;2023-04-01T15:23:25;19.40;48.60
1367;DHT22;16877;48.810;9.282;2023-04-01T15:26:19;19.30;48.30
1367;DHT22;16877;48.810;9.282;2023-04-01T15:28:57;19.30;48.30
1367;DHT22;16877;48.810;9.282;2023-04-01T15:31:34;19.30;48.20
1367;DHT22;16877;48.810;9.282;2023-04-01T15:34:15;19.30;48.20
1367;DHT22;16877;48.810;9.282;2023-04-01T15:36:52;19.30;48.20
1367;DHT22;16877;48.810;9.282;2023-04-01T15:39:28;19.30;48.10
1367;DHT22;16877;48.810;9.282;2023-04-01T15:42:16;19.20;48.20
1367;DHT22;16877;48.810;9.282;2023-04-01T15:44:53;19.20;48.30
1367;DHT22;16877;48.810;9.282;2023-04-01T15:47:33;19.20;48.30
1367;DHT22;16877;48.810;9.282;2023-04-01T15:50:24;19.30;48.40
1367;DHT22;16877;48.810;9.282;2023-04-01T15:53:01;19.30;48.50
1367;DHT22;16877;48.810;9.282;2023-04-01T15:55:37;19.30;48.60
1367;DHT22;16877;48.810;9.282;2023-04-01T15:58:25;19.30;48.40
1367;DHT22;16877;48.810;9.282;2023-04-01T16:01:06;19.20;48.50
1367;DHT22;16877;48.810;9.282;2023-04-01T16:03:40;19.20;48.60
1367;DHT22;16877;48.810;9.282;2023-04-01T16:06:22;19.30;48.60
1367;DHT22;16877;48.810;9.282;2023-04-01T16:12:05;19.30;48.60
1367;DHT22;16877;48.810;9.282;2023-04-01T16:14:41;19.30;48.60
1367;DHT22;16877;48.810;9.282;2023-04-01T16:17:21;19.20;48.30
1367;DHT22;16877;48.810;9.282;2023-04-01T16:19:56;19.20;48.50
1367;DHT22;16877;48.810;9.282;2023-04-01T16:22:31;19.10;48.50
1367;DHT22;16877;48.810;9.282;2023-04-01T16:25:14;19.00;48.50
1367;DHT22;16877;48.810;9.282;2023-04-01T16:27:49;19.10;48.50
1367;DHT22;16877;48.810;9.282;2023-04-01T16:30:32;19.10;48.10
1367;DHT22;16877;48.810;9.282;2023-04-01T16:33:03;19.00;48.30
1367;DHT22;16877;48.810;9.282;2023-04-01T16:35:41;19.00;48.40
1367;DHT22;16877;48.810;9.282;2023-04-01T16:38:15;19.00;48.40
1367;DHT22;16877;48.810;9.282;2023-04-01T16:40:52;19.00;48.30
1367;DHT22;16877;48.810;9.282;2023-04-01T16:43:40;19.10;48.30
1367;DHT22;16877;48.810;9.282;2023-04-01T16:46:34;19.20;48.40
1367;DHT22;16877;48.810;9.282;2023-04-01T16:52:14;19.10;48.30
1367;DHT22;16877;48.810;9.282;2023-04-01T16:54:47;19.10;48.30
1367;DHT22;16877;48.810;9.282;2023-04-01T16:57:23;19.20;48.40
1367;DHT22;16877;48.810;9.282;2023-04-01T17:00:02;19.20;48.40
1367;DHT22;16877;48.810;9.282;2023-04-01T17:02:37;19.20;48.40
1367;DHT22;16877;48.810;9.282;2023-04-01T17:05:11;19.20;48.30
1367;DHT22;16877;48.810;9.282;2023-04-01T17:07:46;19.20;48.40
1367;DHT22;16877;48.810;9.282;2023-04-01T17:10:41;19.20;48.50
1367;DHT22;16877;48.810;9.282;2023-04-01T17:13:29;19.20;48.50
1367;DHT22;16877;48.810;9.282;2023-04-01T17:16:15;19.20;48.50
1367;DHT22;16877;48.810;9.282;2023-04-01T17:18:55;19.20;48.60
1367;DHT22;16877;48.810;9.282;2023-04-01T17:21:49;19.20;48.60
1367;DHT22;16877;48.810;9.282;2023-04-01T17:24:35;19.20;48.70
1367;DHT22;16877;48.810;9.282;2023-04-01T17:27:24;19.20;48.80
1367;DHT22;16877;48.810;9.282;2023-04-01T17:30:06;19.20;48.90
1367;DHT22;16877;48.810;9.282;2023-04-01T17:32:49;19.10;48.80
1367;DHT22;16877;48.810;9.282;2023-04-01T17:35:27;19.10;48.80
1367;DHT22;16877;48.810;9.282;2023-04-01T17:38:10;19.10;48.90
1367;DHT22;16877;48.810;9.282;2023-04-01T17:40:50;19.10;48.90
1367;DHT22;16877;48.810;9.282;2023-04-01T17:43:35;19.10;48.90
1367;DHT22;16877;48.810;9.282;2023-04-01T17:46:18;19.10;49.00
1367;DHT22;16877;48.810;9.282;2023-04-01T17:48:54;19.10;49.00
1367;DHT22;16877;48.810;9.282;2023-04-01T17:51:27;19.10;49.10
1367;DHT22;16877;48.810;9.282;2023-04-01T17:54:05;19.10;49.00
1367;DHT22;16877;48.810;9.282;2023-04-01T17:56:48;19.10;49.00
1367;DHT22;16877;48.810;9.282;2023-04-01T17:59:32;19.10;49.10
1367;DHT22;16877;48.810;9.282;2023-04-01T18:02:07;19.10;49.10
1367;DHT22;16877;48.810;9.282;2023-04-01T18:04:58;19.20;49.20
1367;DHT22;16877;48.810;9.282;2023-04-01T18:07:42;19.20;49.20
1367;DHT22;16877;48.810;9.282;2023-04-01T18:10:23;19.20;49.30
1367;DHT22;16877;48.810;9.282;2023-04-01T18:16:17;19.10;49.60
1367;DHT22;16877;48.810;9.282;2023-04-01T18:18:52;19.10;49.90
1367;DHT22;16877;48.810;9.282;2023-04-01T18:21:32;19.10;50.20
1367;DHT22;16877;48.810;9.282;2023-04-01T18:24:13;19.10;50.40
1367;DHT22;16877;48.810;9.282;2023-04-01T18:26:44;19.10;50.70